Observations for MINNEAPOLIS-ST PAUL, MN (MSP)

KMSP 140753Z 21005KT 10SM BKN080 25/20 A2995 RMK AO2 SLP135 T02500200   
KMSP 140653Z 22006KT 10SM BKN080 26/20 A2995 RMK AO2 SLP136 T02560200   
KMSP 140553Z 23009KT 10SM FEW080 26/19 A2995 RMK AO2 SLP136 T02610194 10317 20261 403330217 58001   
KMSP 140453Z 23006KT 10SM FEW100 27/19 A2996 RMK AO2 SLP137 T02720194   
KMSP 140353Z 22006KT 10SM FEW100 28/19 A2996 RMK AO2 SLP138 T02780194   
KMSP 140253Z 20006KT 10SM CLR 28/20 A2996 RMK AO2 SLP137 T02830200 53004
KMSP 140153Z 19006KT 10SM CLR 29/19 A2994 RMK AO2 SLP133 T02940194  
KMSP 140053Z 22008KT 10SM CLR 31/19 A2995 RMK AO2 SLP135 T03060189  
KMSP 132353Z 22009G17KT 10SM CLR 32/18 A2994 RMK AO2 SLP133 T03170178 10333 20311 56008 
KMSP 132253Z 22009KT 10SM CLR 32/17 A2995 RMK AO2 SLP135 T03220172  
KMSP 132153Z 18013G20KT 10SM FEW060 33/17 A2996 RMK AO2 SLP137 T03280167
KMSP 132053Z 21010G17KT 10SM FEW060 33/17 A2997 RMK AO2 SLP142 T03280172 58014  
KMSP 131953Z 20011G20KT 10SM FEW060 33/18 A2998 RMK AO2 SLP147 T03280178
KMSP 131853Z 20012G20KT 10SM FEW060 32/18 A3000 RMK AO2 SLP152 T03220178
KMSP 131753Z 22012G19KT 10SM CLR 32/18 A3001 RMK AO2 SLP156 T03220178 10322 20222 58012 
KMSP 131653Z 20009G16KT 170V250 10SM CLR 31/18 A3003 RMK AO2 SLP162 T03110183   
KMSP 131553Z 23008KT 10SM CLR 29/18 A3004 RMK AO2 SLP166 T02890183  
KMSP 131453Z 21009KT 10SM CLR 27/19 A3005 RMK AO2 SLP168 T02720189 58003
KMSP 131353Z 21008KT 9SM CLR 25/19 A3006 RMK AO2 SLP172 T02500194   
KMSP 131253Z 21009KT 9SM CLR 24/19 A3006 RMK AO2 SLP173 T02390194   
KMSP 131153Z 00000KT 8SM CLR 22/19 A3006 RMK AO2 SLP172 T02170194 10250 20217 55003 
KMSP 131053Z COR 17004KT 10SM FEW300 22/19 A3005 RMK AO2 SLP169 T02220194   
KMSP 130953Z 17004KT 9SM CLR 24/20 A3005 RMK AO2 SLP171 T02390200   
KMSP 130853Z 21005KT 10SM CLR 24/20 A3006 RMK AO2 SLP174 T02440200 55004
KMSP 130753Z 20008KT 10SM CLR 25/20 A3006 RMK AO2 SLP174 T02500200